createdAt,value
2023-02-11T00:00:00.541Z,34
2023-02-11T00:01:00.528Z,32
2023-02-11T00:02:00.578Z,33
2023-02-11T00:03:00.601Z,31
2023-02-11T00:04:00.553Z,34
2023-02-11T00:05:00.554Z,36
2023-02-11T00:06:00.542Z,31
2023-02-11T00:07:00.571Z,33
2023-02-11T00:08:00.553Z,35
2023-02-11T00:09:00.538Z,33
2023-02-11T00:10:00.552Z,30
2023-02-11T00:11:00.557Z,36
2023-02-11T00:12:00.567Z,34
2023-02-11T00:13:00.550Z,31
2023-02-11T00:14:00.572Z,32
2023-02-11T00:15:00.552Z,33
2023-02-11T00:16:00.561Z,32
2023-02-11T00:17:00.705Z,40
2023-02-11T00:18:00.546Z,30
2023-02-11T00:20:00.559Z,32
2023-02-11T00:21:00.547Z,30
2023-02-11T00:22:00.554Z,29
2023-02-11T00:23:00.549Z,34
2023-02-11T00:24:00.553Z,31
2023-02-11T00:25:00.551Z,30
2023-02-11T00:26:00.541Z,30
2023-02-11T00:27:00.552Z,32
2023-02-11T00:28:00.595Z,31
2023-02-11T00:29:00.548Z,31
2023-02-11T00:30:00.557Z,34
2023-02-11T00:31:00.666Z,32
2023-02-11T00:32:00.604Z,30
2023-02-11T00:33:00.546Z,28
2023-02-11T00:34:00.569Z,30
2023-02-11T00:35:00.547Z,31
2023-02-11T00:36:00.544Z,32
2023-02-11T00:37:00.546Z,32
2023-02-11T00:38:00.569Z,29
2023-02-11T00:39:00.596Z,29
2023-02-11T00:40:00.548Z,30
2023-02-11T00:41:00.547Z,28
2023-02-11T00:42:00.554Z,31
2023-02-11T00:43:00.552Z,29
2023-02-11T00:45:00.543Z,29
2023-02-11T00:46:00.568Z,31
2023-02-11T00:47:00.543Z,33
2023-02-11T00:48:00.536Z,34
2023-02-11T00:49:00.548Z,35
2023-02-11T00:50:00.603Z,30
2023-02-11T00:51:00.575Z,28
2023-02-11T00:53:00.556Z,28
2023-02-11T00:54:00.563Z,29
2023-02-11T00:55:00.540Z,26
2023-02-11T00:56:00.552Z,28
2023-02-11T00:57:00.576Z,26
2023-02-11T00:58:00.546Z,28
2023-02-11T00:59:00.535Z,28
2023-02-11T01:00:00.542Z,28
2023-02-11T01:01:00.618Z,30
2023-02-11T01:02:00.543Z,27
2023-02-11T01:03:00.563Z,25
2023-02-11T01:04:00.557Z,31
2023-02-11T01:05:00.569Z,27
2023-02-11T01:06:00.576Z,30
2023-02-11T01:07:00.545Z,25
2023-02-11T01:08:00.555Z,26
2023-02-11T01:09:00.586Z,27
2023-02-11T01:10:00.565Z,29
2023-02-11T01:11:00.563Z,29
2023-02-11T01:12:00.552Z,32
2023-02-11T01:13:00.550Z,30
2023-02-11T01:14:00.581Z,30
2023-02-11T01:15:00.552Z,31
2023-02-11T01:16:00.644Z,28
2023-02-11T01:17:00.573Z,27
2023-02-11T01:18:00.576Z,30
2023-02-11T01:19:00.580Z,34
2023-02-11T01:20:00.570Z,27
2023-02-11T01:21:00.557Z,28
2023-02-11T01:22:00.554Z,24
2023-02-11T01:23:00.570Z,31
2023-02-11T01:24:00.563Z,26
2023-02-11T01:25:00.572Z,29
2023-02-11T01:26:00.589Z,28
2023-02-11T01:27:00.559Z,25
2023-02-11T01:28:00.623Z,29
2023-02-11T01:29:00.554Z,24
2023-02-11T01:30:00.583Z,26
2023-02-11T01:32:00.662Z,26
2023-02-11T01:33:00.646Z,26
2023-02-11T01:34:00.585Z,24
2023-02-11T01:35:00.589Z,27
2023-02-11T01:36:00.598Z,29
2023-02-11T01:37:00.562Z,29
2023-02-11T01:38:00.560Z,27
2023-02-11T01:39:00.562Z,29
2023-02-11T01:40:00.596Z,28
2023-02-11T01:41:00.573Z,26
2023-02-11T01:42:00.569Z,27
2023-02-11T01:43:00.583Z,27
2023-02-11T01:44:00.587Z,28
2023-02-11T01:45:00.637Z,24
2023-02-11T01:46:00.609Z,23
2023-02-11T01:47:00.587Z,29
2023-02-11T01:48:00.574Z,24
2023-02-11T01:49:00.654Z,25
2023-02-11T01:50:00.632Z,32
2023-02-11T01:51:00.563Z,27
2023-02-11T01:52:00.560Z,26
2023-02-11T01:53:00.567Z,29
2023-02-11T01:54:00.568Z,26
2023-02-11T01:55:00.570Z,26
2023-02-11T01:56:00.574Z,24
2023-02-11T01:57:00.578Z,27
2023-02-11T01:58:00.610Z,28
2023-02-11T01:59:00.574Z,26
2023-02-11T02:00:00.571Z,25
2023-02-11T02:01:00.560Z,23
2023-02-11T02:02:00.698Z,26
2023-02-11T02:03:00.609Z,26
2023-02-11T02:04:00.687Z,24
2023-02-11T02:05:00.570Z,25
2023-02-11T02:06:00.594Z,25
2023-02-11T02:07:00.583Z,26
2023-02-11T02:08:00.582Z,25
2023-02-11T02:09:00.578Z,25
2023-02-11T02:10:01.380Z,27
2023-02-11T02:11:00.614Z,23
2023-02-11T02:12:00.586Z,23
2023-02-11T02:13:00.568Z,29
2023-02-11T02:15:00.570Z,25
2023-02-11T02:16:00.613Z,23
2023-02-11T02:17:00.565Z,23
2023-02-11T02:18:00.564Z,21
2023-02-11T02:19:00.634Z,23
2023-02-11T02:20:00.591Z,26
2023-02-11T02:21:00.575Z,23
2023-02-11T02:22:00.605Z,27
2023-02-11T02:23:00.582Z,26
2023-02-11T02:24:00.575Z,23
2023-02-11T02:25:00.578Z,25
2023-02-11T02:26:00.574Z,22
2023-02-11T02:27:00.580Z,22
2023-02-11T02:28:00.623Z,29
2023-02-11T02:29:00.608Z,22
2023-02-11T02:30:00.598Z,22
2023-02-11T02:31:00.743Z,26
2023-02-11T02:32:00.576Z,24
2023-02-11T02:33:05.848Z,24
2023-02-11T02:35:00.583Z,19
2023-02-11T02:36:00.587Z,22
2023-02-11T02:37:00.587Z,21
2023-02-11T02:38:00.588Z,26
2023-02-11T02:39:00.605Z,25
2023-02-11T02:40:00.601Z,21
2023-02-11T02:41:00.588Z,26
2023-02-11T02:42:00.596Z,23
2023-02-11T02:43:00.572Z,25
2023-02-11T02:44:00.591Z,22
2023-02-11T02:45:00.580Z,26
2023-02-11T02:46:00.585Z,20
2023-02-11T02:47:00.702Z,21
2023-02-11T02:48:00.578Z,25
2023-02-11T02:49:00.573Z,21
2023-02-11T02:50:00.598Z,24
2023-02-11T02:51:00.575Z,22
2023-02-11T02:52:00.589Z,22
2023-02-11T02:53:00.610Z,27
2023-02-11T02:54:00.601Z,22
2023-02-11T02:56:00.607Z,25
2023-02-11T02:57:00.585Z,21
2023-02-11T02:58:00.572Z,23
2023-02-11T02:59:00.597Z,24
2023-02-11T03:00:00.581Z,25
2023-02-11T03:01:00.659Z,26
2023-02-11T03:02:00.579Z,23
2023-02-11T03:03:00.594Z,20
2023-02-11T03:04:00.722Z,24
2023-02-11T03:05:00.610Z,20
2023-02-11T03:06:00.650Z,22
2023-02-11T03:07:00.587Z,26
2023-02-11T03:08:00.586Z,20
2023-02-11T03:09:00.601Z,20
2023-02-11T03:10:00.606Z,25
2023-02-11T03:11:00.616Z,23
2023-02-11T03:12:00.598Z,23
2023-02-11T03:13:00.636Z,20
2023-02-11T03:14:00.609Z,23
2023-02-11T03:15:00.603Z,24
2023-02-11T03:17:00.589Z,23
2023-02-11T03:18:00.597Z,21
2023-02-11T03:19:00.602Z,20
2023-02-11T03:20:00.599Z,24
2023-02-11T03:21:00.596Z,20
2023-02-11T03:22:00.576Z,22
2023-02-11T03:23:00.631Z,24
2023-02-11T03:24:00.588Z,20
2023-02-11T03:25:00.614Z,21
2023-02-11T03:26:00.595Z,20
2023-02-11T03:27:00.593Z,21
2023-02-11T03:28:00.608Z,21
2023-02-11T03:29:00.601Z,17
2023-02-11T03:30:00.602Z,23
2023-02-11T03:31:00.670Z,21
2023-02-11T03:32:00.731Z,20
2023-02-11T03:33:00.605Z,22
2023-02-11T03:34:00.602Z,21
2023-02-11T03:35:00.602Z,18
2023-02-11T03:36:00.595Z,22
2023-02-11T03:37:00.602Z,18
2023-02-11T03:38:00.619Z,22
2023-02-11T03:39:00.617Z,25
2023-02-11T03:40:00.600Z,19
2023-02-11T03:41:01.613Z,21
2023-02-11T03:42:00.581Z,20
2023-02-11T03:43:00.592Z,20
2023-02-11T03:44:00.652Z,23
2023-02-11T03:45:00.621Z,20
2023-02-11T03:46:00.620Z,22
2023-02-11T03:47:00.601Z,24
2023-02-11T03:49:00.616Z,25
2023-02-11T03:51:00.594Z,18
2023-02-11T03:52:00.602Z,20
2023-02-11T03:53:00.593Z,20
2023-02-11T03:54:00.611Z,18
2023-02-11T03:55:00.639Z,23
2023-02-11T03:56:00.601Z,21
2023-02-11T03:57:00.601Z,22
2023-02-11T03:58:00.598Z,18
2023-02-11T03:59:00.594Z,26
2023-02-11T04:00:00.636Z,22
2023-02-11T04:01:00.652Z,19
2023-02-11T04:02:00.616Z,20
2023-02-11T04:03:00.641Z,21
2023-02-11T04:04:00.600Z,23
2023-02-11T04:05:00.600Z,26
2023-02-11T04:06:00.589Z,22
2023-02-11T04:07:00.599Z,23
2023-02-11T04:08:00.619Z,18
2023-02-11T04:09:00.617Z,23
2023-02-11T04:10:00.641Z,25
2023-02-11T04:11:00.631Z,18
2023-02-11T04:12:00.639Z,23
2023-02-11T04:13:00.608Z,23
2023-02-11T04:14:00.604Z,20
2023-02-11T04:15:00.633Z,26
2023-02-11T04:16:00.636Z,22
2023-02-11T04:17:00.642Z,23
2023-02-11T04:18:00.600Z,22
2023-02-11T04:19:00.594Z,20
2023-02-11T04:20:00.601Z,20
2023-02-11T04:21:00.603Z,22
2023-02-11T04:22:00.612Z,23
2023-02-11T04:23:00.642Z,22
2023-02-11T04:24:00.650Z,19
2023-02-11T04:25:00.604Z,25
2023-02-11T04:26:00.612Z,22
2023-02-11T04:27:00.608Z,20
2023-02-11T04:29:00.605Z,23
2023-02-11T04:30:00.598Z,21
2023-02-11T04:31:00.713Z,23
2023-02-11T04:32:00.648Z,23
2023-02-11T04:33:00.616Z,25
2023-02-11T04:34:00.674Z,25
2023-02-11T04:35:00.624Z,24
2023-02-11T04:36:00.617Z,25
2023-02-11T04:37:00.620Z,21
2023-02-11T04:38:00.619Z,20
2023-02-11T04:39:00.627Z,24
2023-02-11T04:40:00.614Z,22
2023-02-11T04:41:00.620Z,22
2023-02-11T04:42:00.634Z,26
2023-02-11T04:43:00.609Z,22
2023-02-11T04:44:00.614Z,21
2023-02-11T04:45:00.623Z,24
2023-02-11T04:46:00.751Z,20
2023-02-11T04:47:00.603Z,23
2023-02-11T04:48:00.615Z,22
2023-02-11T04:49:00.635Z,29
2023-02-11T04:50:00.612Z,27
2023-02-11T04:51:00.646Z,23
2023-02-11T04:52:00.623Z,23
2023-02-11T04:53:00.610Z,26
2023-02-11T04:54:00.622Z,23
2023-02-11T04:55:00.606Z,25
2023-02-11T04:56:00.628Z,23
2023-02-11T04:57:01.215Z,24
2023-02-11T04:58:00.609Z,20
2023-02-11T04:59:00.607Z,22
2023-02-11T05:00:00.614Z,21
2023-02-11T05:01:00.670Z,25
2023-02-11T05:02:00.630Z,25
2023-02-11T05:03:00.636Z,23
2023-02-11T05:04:00.653Z,25
2023-02-11T05:05:00.622Z,24
2023-02-11T05:06:00.636Z,27
2023-02-11T05:07:00.624Z,21
2023-02-11T05:08:00.626Z,27
2023-02-11T05:09:00.623Z,22
2023-02-11T05:10:00.615Z,25
2023-02-11T05:11:00.615Z,23
2023-02-11T05:13:00.612Z,24
2023-02-11T05:14:00.616Z,26
2023-02-11T05:15:00.615Z,26
2023-02-11T05:16:00.615Z,24
2023-02-11T05:17:00.697Z,23
2023-02-11T05:18:00.623Z,22
2023-02-11T05:19:00.616Z,25
2023-02-11T05:20:00.669Z,26
2023-02-11T05:21:00.612Z,28
2023-02-11T05:22:03.400Z,26
2023-02-11T05:23:00.612Z,22
2023-02-11T05:24:00.623Z,23
2023-02-11T05:25:00.665Z,26
2023-02-11T05:26:00.610Z,26
2023-02-11T05:27:00.636Z,26
2023-02-11T05:28:00.678Z,24
2023-02-11T05:29:00.629Z,26
2023-02-11T05:32:00.643Z,26
2023-02-11T05:33:00.652Z,24
2023-02-11T05:34:00.623Z,25
2023-02-11T05:35:00.625Z,27
2023-02-11T05:36:00.630Z,22
2023-02-11T05:37:00.739Z,26
2023-02-11T05:38:00.617Z,25
2023-02-11T05:39:00.610Z,28
2023-02-11T05:40:00.615Z,28
2023-02-11T05:41:00.635Z,29
2023-02-11T05:42:00.642Z,21
2023-02-11T05:43:00.636Z,24
2023-02-11T05:44:00.631Z,23
2023-02-11T05:45:00.623Z,22
2023-02-11T05:46:00.659Z,25
2023-02-11T05:47:00.647Z,24
2023-02-11T05:48:00.648Z,27
2023-02-11T05:49:00.616Z,27
2023-02-11T05:50:00.618Z,28
2023-02-11T05:51:00.655Z,26
2023-02-11T05:52:00.620Z,24
2023-02-11T05:53:00.648Z,27
2023-02-11T05:54:00.617Z,29
2023-02-11T05:55:00.621Z,26
2023-02-11T05:56:00.620Z,29
2023-02-11T05:57:00.624Z,27
2023-02-11T05:58:00.997Z,28
2023-02-11T05:59:00.651Z,27
2023-02-11T06:00:00.682Z,31
2023-02-11T06:01:00.626Z,31
2023-02-11T06:02:00.618Z,26
2023-02-11T06:03:00.670Z,30
2023-02-11T06:04:00.731Z,28
2023-02-11T06:05:00.624Z,25
2023-02-11T06:06:00.635Z,26
2023-02-11T06:07:00.630Z,24
2023-02-11T06:08:00.629Z,29
2023-02-11T06:09:00.670Z,31
2023-02-11T06:10:00.626Z,28
2023-02-11T06:11:00.620Z,37
2023-02-11T06:12:00.620Z,33
2023-02-11T06:13:00.661Z,27
2023-02-11T06:14:00.636Z,35
2023-02-11T06:15:00.664Z,33
2023-02-11T06:16:00.682Z,32
2023-02-11T06:17:00.632Z,30
2023-02-11T06:18:00.631Z,35
2023-02-11T06:19:00.657Z,31
2023-02-11T06:20:00.645Z,28
2023-02-11T06:21:00.653Z,31
2023-02-11T06:22:00.647Z,33
2023-02-11T06:23:00.646Z,30
2023-02-11T06:24:00.644Z,31
2023-02-11T06:25:02.179Z,29
2023-02-11T06:26:00.678Z,32
2023-02-11T06:27:00.650Z,33
2023-02-11T06:28:00.697Z,32
2023-02-11T06:29:00.636Z,31
2023-02-11T06:30:00.641Z,33
2023-02-11T06:31:00.684Z,29
2023-02-11T06:32:00.837Z,31
2023-02-11T06:34:00.628Z,29
2023-02-11T06:35:00.624Z,28
2023-02-11T06:36:00.628Z,32
2023-02-11T06:37:00.625Z,33
2023-02-11T06:38:00.627Z,33
2023-02-11T06:39:00.635Z,35
2023-02-11T06:40:00.629Z,35
2023-02-11T06:41:00.638Z,33
2023-02-11T06:42:00.663Z,29
2023-02-11T06:43:00.653Z,32
2023-02-11T06:44:00.639Z,31
2023-02-11T06:45:00.643Z,29
2023-02-11T06:46:00.626Z,37
2023-02-11T06:47:00.635Z,13
2023-02-11T06:48:00.687Z,11
2023-02-11T06:49:00.665Z,9
2023-02-11T06:50:00.658Z,33
2023-02-11T06:51:00.637Z,26
2023-02-11T06:52:00.655Z,32
2023-02-11T06:53:00.643Z,30
2023-02-11T06:54:00.645Z,32
2023-02-11T06:55:00.631Z,31
2023-02-11T06:56:00.631Z,29
2023-02-11T06:57:00.636Z,35
2023-02-11T06:58:00.660Z,31
2023-02-11T06:59:00.638Z,33
2023-02-11T07:00:00.644Z,32
2023-02-11T07:01:00.642Z,31
2023-02-11T07:02:00.723Z,33
2023-02-11T07:04:00.651Z,30
2023-02-11T07:05:00.693Z,36
2023-02-11T07:06:00.643Z,28
2023-02-11T07:07:00.641Z,33
2023-02-11T07:08:00.636Z,32
2023-02-11T07:09:00.639Z,31
2023-02-11T07:10:00.687Z,33
2023-02-11T07:11:00.651Z,31
2023-02-11T07:12:00.642Z,33
2023-02-11T07:13:00.642Z,29
2023-02-11T07:14:00.641Z,29
2023-02-11T07:15:00.638Z,35
2023-02-11T07:16:00.716Z,33
2023-02-11T07:17:00.643Z,36
2023-02-11T07:18:00.646Z,35
2023-02-11T07:19:00.651Z,33
2023-02-11T07:20:00.641Z,34
2023-02-11T07:21:00.669Z,35
2023-02-11T07:22:00.684Z,35
2023-02-11T07:23:00.662Z,34
2023-02-11T07:24:00.670Z,33
2023-02-11T07:25:00.675Z,29
2023-02-11T07:26:00.659Z,33
2023-02-11T07:28:00.697Z,43
2023-02-11T07:29:00.650Z,35
2023-02-11T07:30:00.661Z,33
2023-02-11T07:31:00.812Z,30
2023-02-11T07:32:00.738Z,29
2023-02-11T07:33:00.640Z,28
2023-02-11T07:34:00.673Z,32
2023-02-11T07:35:00.759Z,37
2023-02-11T07:36:00.647Z,32
2023-02-11T07:37:00.656Z,29
2023-02-11T07:38:00.708Z,33
2023-02-11T07:39:00.679Z,31
2023-02-11T07:40:00.647Z,33
2023-02-11T07:41:00.650Z,36
2023-02-11T07:42:00.664Z,34
2023-02-11T07:43:00.662Z,34
2023-02-11T07:44:00.665Z,32
2023-02-11T07:45:00.739Z,29
2023-02-11T07:46:00.649Z,34
2023-02-11T07:47:00.733Z,26
2023-02-11T07:49:00.658Z,28
2023-02-11T07:50:00.678Z,27
2023-02-11T07:51:00.653Z,33
2023-02-11T07:52:00.690Z,30
2023-02-11T07:53:00.667Z,28
2023-02-11T07:54:00.706Z,36
2023-02-11T07:55:02.618Z,30
2023-02-11T07:56:00.684Z,34
2023-02-11T07:57:00.682Z,32
2023-02-11T07:58:00.657Z,35
2023-02-11T07:59:00.655Z,33
2023-02-11T08:00:00.678Z,36
2023-02-11T08:01:00.724Z,32
2023-02-11T08:02:00.769Z,33
2023-02-11T08:03:00.669Z,34
2023-02-11T08:04:00.712Z,34
2023-02-11T08:05:00.658Z,35
2023-02-11T08:06:00.654Z,36
2023-02-11T08:07:00.670Z,34
2023-02-11T08:08:00.703Z,32
2023-02-11T08:10:00.655Z,36
2023-02-11T08:11:00.681Z,35
2023-02-11T08:12:00.677Z,37
2023-02-11T08:13:00.729Z,31
2023-02-11T08:14:00.691Z,31
2023-02-11T08:15:00.687Z,31
2023-02-11T08:16:00.737Z,32
2023-02-11T08:17:00.667Z,32
2023-02-11T08:18:00.676Z,36
2023-02-11T08:19:00.695Z,10
2023-02-11T08:20:00.659Z,14
2023-02-11T08:21:00.652Z,11
2023-02-11T08:22:00.704Z,16
2023-02-11T08:23:00.656Z,15
2023-02-11T08:24:00.659Z,19
2023-02-11T08:25:00.693Z,23
2023-02-11T08:26:00.707Z,29
2023-02-11T08:27:00.650Z,30
2023-02-11T08:28:00.684Z,35
2023-02-11T08:30:00.695Z,33
2023-02-11T08:31:00.760Z,29
2023-02-11T08:32:00.744Z,31
2023-02-11T08:33:00.662Z,30
2023-02-11T08:34:00.671Z,26
2023-02-11T08:35:00.670Z,35
2023-02-11T08:36:00.668Z,31
2023-02-11T08:37:00.677Z,30
2023-02-11T08:39:17.613Z,33
2023-02-11T08:40:00.680Z,30
2023-02-11T08:41:00.679Z,29
2023-02-11T08:42:00.683Z,29
2023-02-11T08:43:00.675Z,34
2023-02-11T08:44:00.660Z,35
2023-02-11T08:45:00.664Z,32
2023-02-11T08:46:02.158Z,33
2023-02-11T08:47:00.674Z,30
2023-02-11T08:48:00.675Z,34
2023-02-11T08:49:00.692Z,35
2023-02-11T08:50:00.680Z,36
2023-02-11T08:51:00.681Z,36
2023-02-11T08:52:00.682Z,33
2023-02-11T08:53:00.705Z,33
2023-02-11T08:54:00.722Z,32
2023-02-11T08:55:00.727Z,37
2023-02-11T08:56:00.686Z,32
2023-02-11T08:57:00.679Z,35
2023-02-11T08:58:00.681Z,35
2023-02-11T08:59:00.692Z,34
2023-02-11T09:00:00.662Z,40
2023-02-11T09:01:00.738Z,33
2023-02-11T09:02:00.714Z,34
2023-02-11T09:03:00.684Z,38
2023-02-11T09:04:00.692Z,38
2023-02-11T09:05:00.690Z,34
2023-02-11T09:06:00.691Z,31
2023-02-11T09:07:00.694Z,39
2023-02-11T09:08:00.699Z,34
2023-02-11T09:09:00.681Z,34
2023-02-11T09:10:00.732Z,39
2023-02-11T09:11:00.686Z,32
2023-02-11T09:12:00.695Z,37
2023-02-11T09:13:00.689Z,37
2023-02-11T09:15:00.708Z,35
2023-02-11T09:16:00.677Z,38
2023-02-11T09:17:00.741Z,37
2023-02-11T09:18:00.689Z,38
2023-02-11T09:19:00.689Z,38
2023-02-11T09:20:00.687Z,34
2023-02-11T09:21:00.682Z,35
2023-02-11T09:22:00.690Z,40
2023-02-11T09:23:00.687Z,35
2023-02-11T09:24:00.715Z,38
2023-02-11T09:25:00.702Z,36
2023-02-11T09:26:00.697Z,32
2023-02-11T09:27:00.694Z,40
2023-02-11T09:28:00.731Z,39
2023-02-11T09:29:00.702Z,44
2023-02-11T09:30:00.679Z,36
2023-02-11T09:31:00.773Z,37
2023-02-11T09:32:00.863Z,41
2023-02-11T09:33:00.674Z,44
2023-02-11T09:34:00.673Z,36
2023-02-11T09:35:00.696Z,36
2023-02-11T09:36:00.667Z,39
2023-02-11T09:37:00.753Z,37
2023-02-11T09:38:00.703Z,42
2023-02-11T09:39:00.724Z,36
2023-02-11T09:40:00.705Z,32
2023-02-11T09:41:00.712Z,41
2023-02-11T09:42:00.669Z,38
2023-02-11T09:43:04.036Z,40
2023-02-11T09:44:00.700Z,35
2023-02-11T09:45:00.699Z,34
2023-02-11T09:46:00.775Z,41
2023-02-11T09:47:00.711Z,34
2023-02-11T09:48:00.710Z,38
2023-02-11T09:49:00.725Z,38
2023-02-11T09:50:00.759Z,35
2023-02-11T09:51:00.693Z,34
2023-02-11T09:52:00.710Z,46
2023-02-11T09:53:00.697Z,38
2023-02-11T09:54:02.142Z,42
2023-02-11T09:55:00.717Z,37
2023-02-11T09:56:00.685Z,40
2023-02-11T09:57:00.683Z,41
2023-02-11T09:58:00.684Z,42
2023-02-11T10:00:00.710Z,43
2023-02-11T10:01:00.735Z,40
2023-02-11T10:02:00.716Z,34
2023-02-11T10:03:00.710Z,40
2023-02-11T10:04:00.755Z,39
2023-02-11T10:05:00.727Z,41
2023-02-11T10:06:00.696Z,39
2023-02-11T10:07:00.699Z,19
2023-02-11T10:08:00.730Z,19
2023-02-11T10:09:00.716Z,21
2023-02-11T10:10:00.690Z,28
2023-02-11T10:11:00.696Z,17
2023-02-11T10:12:00.719Z,18
2023-02-11T10:13:00.710Z,30
2023-02-11T10:14:00.701Z,36
2023-02-11T10:15:00.697Z,33
2023-02-11T10:16:00.867Z,34
2023-02-11T10:17:00.728Z,37
2023-02-11T10:18:00.717Z,36
2023-02-11T10:19:00.701Z,36
2023-02-11T10:20:00.710Z,37
2023-02-11T10:21:00.702Z,37
2023-02-11T10:22:00.701Z,34
2023-02-11T10:23:00.718Z,34
2023-02-11T10:24:00.710Z,35
2023-02-11T10:25:00.720Z,40
2023-02-11T10:26:00.722Z,36
2023-02-11T10:27:00.711Z,37
2023-02-11T10:28:00.740Z,36
2023-02-11T10:29:00.702Z,36
2023-02-11T10:30:00.723Z,39
2023-02-11T10:31:00.931Z,38
2023-02-11T10:32:00.754Z,40
2023-02-11T10:33:00.699Z,35
2023-02-11T10:34:00.711Z,40
2023-02-11T10:35:00.734Z,35
2023-02-11T10:36:00.702Z,40
2023-02-11T10:37:00.699Z,41
2023-02-11T10:38:00.760Z,40
2023-02-11T10:39:00.739Z,35
2023-02-11T10:40:00.723Z,37
2023-02-11T10:41:00.713Z,39
2023-02-11T10:42:00.695Z,41
2023-02-11T10:43:00.747Z,39
2023-02-11T10:44:00.723Z,35
2023-02-11T10:47:00.696Z,40
2023-02-11T10:48:00.773Z,36
2023-02-11T10:49:00.724Z,35
2023-02-11T10:50:00.713Z,38
2023-02-11T10:51:00.718Z,41
2023-02-11T10:52:00.713Z,41
2023-02-11T10:53:00.730Z,41
2023-02-11T10:54:00.705Z,40
2023-02-11T10:55:00.706Z,40
2023-02-11T10:56:00.728Z,40
2023-02-11T10:57:00.740Z,43
2023-02-11T10:58:00.754Z,39
2023-02-11T10:59:00.718Z,39
2023-02-11T11:00:00.739Z,39
2023-02-11T11:01:00.704Z,37
2023-02-11T11:02:00.828Z,40
2023-02-11T11:03:00.702Z,42
2023-02-11T11:04:00.730Z,42
2023-02-11T11:05:00.822Z,41
2023-02-11T11:07:00.728Z,46
2023-02-11T11:08:00.726Z,40
2023-02-11T11:09:00.727Z,40
2023-02-11T11:10:00.783Z,40
2023-02-11T11:11:00.723Z,42
2023-02-11T11:12:00.732Z,38
2023-02-11T11:13:00.730Z,42
2023-02-11T11:14:00.739Z,39
2023-02-11T11:15:00.733Z,43
2023-02-11T11:16:00.768Z,43
2023-02-11T11:17:00.718Z,36
2023-02-11T11:18:19.238Z,45
2023-02-11T11:19:00.729Z,43
2023-02-11T11:20:00.719Z,38
2023-02-11T11:21:00.791Z,40
2023-02-11T11:23:00.716Z,45
2023-02-11T11:24:00.729Z,46
2023-02-11T11:25:00.708Z,42
2023-02-11T11:26:00.708Z,42
2023-02-11T11:27:00.779Z,40
2023-02-11T11:28:00.819Z,48
2023-02-11T11:29:00.737Z,38
2023-02-11T11:30:00.726Z,36
2023-02-11T11:31:00.933Z,41
2023-02-11T11:32:00.840Z,49
2023-02-11T11:33:00.724Z,46
2023-02-11T11:34:00.724Z,45
2023-02-11T11:35:00.705Z,43
2023-02-11T11:36:00.706Z,45
2023-02-11T11:37:00.753Z,43
2023-02-11T11:38:02.092Z,48
2023-02-11T11:39:00.742Z,44
2023-02-11T11:40:00.730Z,43
2023-02-11T11:41:00.719Z,40
2023-02-11T11:42:00.725Z,43
2023-02-11T11:43:00.730Z,52
2023-02-11T11:44:00.740Z,49
2023-02-11T11:45:00.779Z,44
2023-02-11T11:46:00.732Z,46
2023-02-11T11:47:00.786Z,45
2023-02-11T11:48:00.723Z,41
2023-02-11T11:49:00.727Z,43
2023-02-11T11:50:00.715Z,45
2023-02-11T11:51:00.734Z,49
2023-02-11T11:52:00.738Z,42
2023-02-11T11:53:00.708Z,47
2023-02-11T11:54:00.752Z,45
2023-02-11T11:55:00.737Z,45
2023-02-11T11:56:00.743Z,41
2023-02-11T11:57:00.724Z,45
2023-02-11T11:58:00.731Z,48
2023-02-11T11:59:00.760Z,45
2023-02-11T12:00:00.740Z,43
2023-02-11T12:01:00.737Z,49
2023-02-11T12:02:00.836Z,44
2023-02-11T12:03:00.838Z,45
2023-02-11T12:04:00.753Z,49
2023-02-11T12:05:00.730Z,52
2023-02-11T12:06:00.789Z,51
2023-02-11T12:07:00.720Z,48
2023-02-11T12:08:00.760Z,45
2023-02-11T12:09:00.770Z,44
2023-02-11T12:10:00.749Z,47
2023-02-11T12:11:00.729Z,45
2023-02-11T12:12:00.722Z,46
2023-02-11T12:13:00.770Z,45
2023-02-11T12:14:00.722Z,46
2023-02-11T12:15:00.792Z,51
2023-02-11T12:16:00.859Z,50
2023-02-11T12:17:00.741Z,49
2023-02-11T12:18:00.793Z,44
2023-02-11T12:19:00.720Z,47
2023-02-11T12:20:00.759Z,45
2023-02-11T12:21:00.725Z,42
2023-02-11T12:22:00.722Z,43
2023-02-11T12:23:00.757Z,54
2023-02-11T12:24:00.766Z,50
2023-02-11T12:25:00.756Z,45
2023-02-11T12:26:00.737Z,47
2023-02-11T12:27:00.745Z,50
2023-02-11T12:28:00.764Z,48
2023-02-11T12:29:00.729Z,45
2023-02-11T12:30:00.728Z,46
2023-02-11T12:31:00.762Z,44
2023-02-11T12:32:00.809Z,53
2023-02-11T12:33:00.737Z,44
2023-02-11T12:34:00.730Z,48
2023-02-11T12:35:00.726Z,50
2023-02-11T12:36:00.732Z,49
2023-02-11T12:37:02.853Z,52
2023-02-11T12:38:00.741Z,49
2023-02-11T12:39:00.754Z,51
2023-02-11T12:40:00.794Z,44
2023-02-11T12:42:00.733Z,56
2023-02-11T12:43:02.536Z,54
2023-02-11T12:45:00.744Z,51
2023-02-11T12:46:00.929Z,56
2023-02-11T12:47:00.754Z,54
2023-02-11T12:48:00.723Z,55
2023-02-11T12:49:00.733Z,49
2023-02-11T12:50:00.773Z,54
2023-02-11T12:51:00.755Z,52
2023-02-11T12:52:00.763Z,48
2023-02-11T12:53:00.774Z,50
2023-02-11T12:54:00.759Z,53
2023-02-11T12:55:00.800Z,48
2023-02-11T12:56:00.762Z,55
2023-02-11T12:57:00.742Z,48
2023-02-11T12:58:00.756Z,46
2023-02-11T12:59:00.753Z,50
2023-02-11T13:00:00.757Z,49
2023-02-11T13:01:00.784Z,51
2023-02-11T13:03:00.736Z,49
2023-02-11T13:04:00.748Z,48
2023-02-11T13:05:00.777Z,48
2023-02-11T13:06:00.746Z,47
2023-02-11T13:07:00.814Z,50
2023-02-11T13:08:00.746Z,46
2023-02-11T13:09:00.789Z,47
2023-02-11T13:10:00.785Z,45
2023-02-11T13:11:00.748Z,50
2023-02-11T13:13:00.771Z,45
2023-02-11T13:14:00.768Z,46
2023-02-11T13:15:00.762Z,44
2023-02-11T13:16:00.771Z,42
2023-02-11T13:17:00.807Z,45
2023-02-11T13:18:00.783Z,41
2023-02-11T13:19:00.788Z,42
2023-02-11T13:20:00.785Z,42
2023-02-11T13:21:00.775Z,42
2023-02-11T13:22:00.753Z,40
2023-02-11T13:24:00.776Z,47
2023-02-11T13:25:00.788Z,41
2023-02-11T13:26:00.771Z,42
2023-02-11T13:27:00.773Z,38
2023-02-11T13:28:00.790Z,42
2023-02-11T13:29:00.768Z,39
2023-02-11T13:30:04.056Z,43
2023-02-11T13:31:00.938Z,45
2023-02-11T13:32:01.356Z,41
2023-02-11T13:33:00.739Z,45
2023-02-11T13:34:01.147Z,40
2023-02-11T13:35:00.791Z,43
2023-02-11T13:36:04.151Z,40
2023-02-11T13:37:00.767Z,42
2023-02-11T13:38:00.759Z,40
2023-02-11T13:39:00.764Z,42
2023-02-11T13:40:00.773Z,43
2023-02-11T13:41:00.757Z,39
2023-02-11T13:42:00.766Z,40
2023-02-11T13:43:00.763Z,45
2023-02-11T13:44:00.777Z,38
2023-02-11T13:45:00.773Z,40
2023-02-11T13:46:00.899Z,37
2023-02-11T13:47:00.761Z,42
2023-02-11T13:48:00.775Z,37
2023-02-11T13:49:00.787Z,40
2023-02-11T13:50:00.773Z,44
2023-02-11T13:51:00.868Z,42
2023-02-11T13:52:00.760Z,34
2023-02-11T13:53:00.772Z,42
2023-02-11T13:54:00.778Z,42
2023-02-11T13:55:00.777Z,38
2023-02-11T13:56:00.788Z,41
2023-02-11T13:57:00.769Z,41
2023-02-11T13:58:00.746Z,39
2023-02-11T13:59:02.095Z,40
2023-02-11T14:00:00.777Z,41
2023-02-11T14:01:00.825Z,41
2023-02-11T14:02:00.828Z,41
2023-02-11T14:04:00.753Z,39
2023-02-11T14:05:00.779Z,40
2023-02-11T14:07:00.761Z,40
2023-02-11T14:08:00.819Z,43
2023-02-11T14:09:00.761Z,39
2023-02-11T14:10:00.777Z,38
2023-02-11T14:11:00.784Z,42
2023-02-11T14:12:00.756Z,36
2023-02-11T14:13:00.821Z,39
2023-02-11T14:14:00.778Z,44
2023-02-11T14:15:02.973Z,41
2023-02-11T14:16:00.770Z,37
2023-02-11T14:17:00.924Z,44
2023-02-11T14:18:00.775Z,42
2023-02-11T14:19:00.758Z,38
2023-02-11T14:20:00.792Z,34
2023-02-11T14:21:03.477Z,38
2023-02-11T14:22:00.756Z,36
2023-02-11T14:23:00.746Z,37
2023-02-11T14:24:00.752Z,38
2023-02-11T14:25:00.865Z,37
2023-02-11T14:26:00.758Z,40
2023-02-11T14:27:00.761Z,38
2023-02-11T14:28:00.792Z,38
2023-02-11T14:29:00.777Z,33
2023-02-11T14:30:00.786Z,40
2023-02-11T14:31:00.921Z,35
2023-02-11T14:32:01.302Z,35
2023-02-11T14:33:00.763Z,35
2023-02-11T14:34:00.772Z,33
2023-02-11T14:35:00.781Z,32
2023-02-11T14:36:00.777Z,32
2023-02-11T14:37:00.793Z,32
2023-02-11T14:38:00.756Z,34
2023-02-11T14:39:00.785Z,34
2023-02-11T14:40:00.774Z,30
2023-02-11T14:41:00.776Z,31
2023-02-11T14:42:00.792Z,32
2023-02-11T14:43:00.771Z,30
2023-02-11T14:44:00.786Z,27
2023-02-11T14:45:01.073Z,29
2023-02-11T14:46:00.808Z,28
2023-02-11T14:47:00.788Z,24
2023-02-11T14:48:00.777Z,31
2023-02-11T14:49:00.804Z,32